Time;durP1;ratioP1;P1;durP2;ratioP2;P2;SDS_P1;SDS_P2;PMS_P1;PMS_P2;Temp;Humidity;BMP_temperature;BMP_pressure;BME280_temperature;BME280_humidity;BME280_pressure;Samples;Min_cycle;Max_cycle;Signal;HPM_P1;HPM_P2
2023/06/10 00:00:47;;;;;;;;;15.50;14.50;26.70;53.20;;;;;;111223;1243;55009;-61
2023/06/10 00:03:34;;;;;;;;;15.50;14.50;26.70;53.00;;;;;;111176;1240;45183;-61
2023/06/10 00:06:01;;;;;;;;;18.00;15.50;26.70;53.20;;;;;;111138;1243;49212;-62
2023/06/10 00:08:31;;;;;;;;;16.25;15.25;26.70;53.10;;;;;;111342;1239;49868;-63
2023/06/10 00:10:58;;;;;;;;;16.25;15.00;26.70;53.00;;;;;;111190;1244;53981;-63
2023/06/10 00:13:25;;;;;;;;;18.75;17.75;26.70;53.00;;;;;;111398;1241;44446;-63
2023/06/10 00:15:52;;;;;;;;;18.00;16.75;26.60;53.00;;;;;;111109;1243;49877;-62
2023/06/10 00:18:21;;;;;;;;;18.25;17.00;26.60;52.90;;;;;;111415;1240;49987;-66
2023/06/10 00:20:52;;;;;;;;;21.00;19.00;26.60;53.00;;;;;;111291;1243;54466;-64
2023/06/10 00:23:19;;;;;;;;;15.25;14.00;26.60;53.10;;;;;;111278;1240;45847;-62
2023/06/10 00:25:47;;;;;;;;;16.00;15.00;26.60;53.10;;;;;;110998;1238;50308;-62
2023/06/10 00:28:14;;;;;;;;;18.00;16.25;26.60;53.10;;;;;;111241;1243;49671;-61
2023/06/10 00:30:41;;;;;;;;;23.75;17.00;26.60;53.10;;;;;;111143;1239;53713;-63
2023/06/10 00:33:08;;;;;;;;;17.00;14.67;26.60;53.10;;;;;;111227;1238;44648;-63
2023/06/10 00:35:35;;;;;;;;;19.33;17.00;26.60;53.30;;;;;;111070;1243;49987;-62
2023/06/10 00:38:02;;;;;;;;;18.25;16.00;26.60;53.10;;;;;;111220;1244;49410;-63
2023/06/10 00:40:29;;;;;;;;;16.00;15.00;26.60;53.10;;;;;;111185;1243;55200;-62
2023/06/10 00:42:56;;;;;;;;;17.75;14.00;26.60;53.10;;;;;;111170;1240;45620;-62
2023/06/10 00:45:23;;;;;;;;;17.00;16.00;26.60;53.20;;;;;;111161;1239;49792;-62
2023/06/10 00:47:50;;;;;;;;;20.00;18.75;26.50;53.10;;;;;;111384;1240;49620;-61
2023/06/10 00:50:17;;;;;;;;;18.75;17.75;26.60;53.20;;;;;;111237;1238;53542;-62
2023/06/10 00:52:46;;;;;;;;;15.00;13.75;26.50;53.10;;;;;;111214;1243;44637;-63
2023/06/10 00:55:14;;;;;;;;;17.67;16.33;26.50;53.30;;;;;;111007;1244;49201;-64
2023/06/10 00:58:19;;;;;;;;;16.50;15.50;26.50;53.20;;;;;;111186;1243;49810;-64
2023/06/10 01:07:26;;;;;;;;;14.25;13.25;26.50;53.20;;;;;;111360;1238;49780;-62
2023/06/10 01:10:01;;;;;;;;;18.00;15.25;26.50;53.20;;;;;;111240;1241;49960;-62
2023/06/10 01:13:06;;;;;;;;;19.00;15.25;26.50;53.20;;;;;;111383;1244;54078;-61
2023/06/10 01:15:34;;;;;;;;;17.00;16.00;26.50;53.20;;;;;;110937;1239;45227;-62
2023/06/10 01:18:04;;;;;;;;;16.00;15.00;26.50;53.20;;;;;;111146;1243;49566;-61
2023/06/10 01:20:32;;;;;;;;;18.75;17.75;26.50;53.10;;;;;;111247;1243;49882;-64
2023/06/10 01:23:00;;;;;;;;;15.67;13.33;26.50;53.10;;;;;;110696;1238;658951;-62
2023/06/10 01:25:27;;;;;;;;;17.50;16.50;26.50;53.30;;;;;;111134;1243;45711;-62
2023/06/10 01:28:03;;;;;;;;;16.25;13.50;26.50;53.20;;;;;;111253;1239;49461;-63
2023/06/10 01:30:39;;;;;;;;;13.50;12.50;26.50;53.40;;;;;;111350;1244;49654;-62
2023/06/10 01:33:07;;;;;;;;;16.75;15.75;26.50;53.20;;;;;;111223;1243;53902;-61
2023/06/10 01:35:36;;;;;;;;;18.00;16.00;26.50;53.20;;;;;;110991;1243;45114;-62
2023/06/10 01:38:04;;;;;;;;;16.50;15.00;26.50;53.20;;;;;;111221;1240;48755;-63
2023/06/10 01:40:32;;;;;;;;;21.00;17.00;26.50;53.20;;;;;;111145;1241;49027;-63
2023/06/10 01:42:59;;;;;;;;;16.25;14.75;26.50;53.20;;;;;;111137;1241;54262;-62
2023/06/10 01:45:26;;;;;;;;;17.00;15.00;26.40;53.20;;;;;;110938;1241;45463;-63
2023/06/10 01:47:53;;;;;;;;;17.00;15.75;26.40;53.20;;;;;;111130;1243;50102;-62
2023/06/10 01:50:20;;;;;;;;;20.00;16.00;26.40;53.20;;;;;;111280;1243;49410;-63
2023/06/10 01:52:46;;;;;;;;;19.25;14.75;26.40;53.40;;;;;;111439;1241;54493;-62
2023/06/10 01:55:13;;;;;;;;;13.00;12.00;26.40;53.20;;;;;;111224;1242;44764;-64
2023/06/10 01:57:40;;;;;;;;;19.50;16.00;26.40;53.20;;;;;;111197;1243;49578;-63
2023/06/10 02:00:08;;;;;;;;;16.25;15.00;26.40;53.20;;;;;;111272;1244;49403;-65
2023/06/10 02:02:35;;;;;;;;;19.75;16.00;26.40;53.30;;;;;;111168;1238;53502;-62
2023/06/10 02:05:03;;;;;;;;;16.00;15.00;26.30;53.20;;;;;;111190;1244;44842;-61
2023/06/10 02:07:30;;;;;;;;;16.75;15.50;26.30;53.20;;;;;;111153;1244;49425;-63
2023/06/10 02:09:57;;;;;;;;;17.67;16.67;26.30;53.20;;;;;;111234;1243;50038;-63
2023/06/10 02:12:24;;;;;;;;;16.75;16.00;26.40;53.30;;;;;;111314;1241;53426;-64
2023/06/10 02:14:51;;;;;;;;;15.00;14.33;26.30;53.20;;;;;;110986;1241;45091;-63
2023/06/10 02:17:17;;;;;;;;;17.00;16.00;26.30;53.30;;;;;;111168;1243;49796;-62
2023/06/10 02:19:52;;;;;;;;;17.00;14.75;26.30;53.30;;;;;;111177;1244;49814;-63
2023/06/10 02:22:21;;;;;;;;;16.75;14.00;26.30;53.50;;;;;;111256;1244;53531;-64
2023/06/10 02:24:48;;;;;;;;;18.00;17.00;26.30;53.50;;;;;;111082;1243;45622;-64
2023/06/10 02:27:18;;;;;;;;;19.67;17.33;26.30;53.30;;;;;;111183;1238;49968;-63
2023/06/10 02:29:45;;;;;;;;;17.75;16.75;26.30;53.20;;;;;;111180;1243;50379;-64
2023/06/10 02:32:12;;;;;;;;;17.00;16.00;26.30;53.20;;;;;;111478;1243;54087;-64
2023/06/10 02:34:39;;;;;;;;;16.25;15.00;26.30;53.50;;;;;;111190;1243;45013;-63
2023/06/10 02:37:06;;;;;;;;;15.75;14.25;26.30;53.80;;;;;;111433;1243;49189;-62
2023/06/10 02:39:33;;;;;;;;;17.67;16.00;26.30;53.30;;;;;;111255;1238;49834;-63
2023/06/10 02:42:00;;;;;;;;;14.75;13.25;26.30;53.20;;;;;;111332;1244;53925;-64
2023/06/10 02:44:27;;;;;;;;;18.25;15.75;26.30;53.30;;;;;;111039;1239;44835;-64
2023/06/10 02:46:53;;;;;;;;;14.50;13.50;26.30;53.60;;;;;;111191;1240;49444;-65
2023/06/10 02:49:20;;;;;;;;;17.00;16.00;26.30;53.40;;;;;;111233;1243;49299;-63
2023/06/10 02:51:47;;;;;;;;;15.75;14.75;26.30;53.30;;;;;;111245;1238;54438;-64
2023/06/10 02:54:16;;;;;;;;;16.00;14.67;26.30;53.40;;;;;;111367;1242;44974;-64
2023/06/10 02:56:43;;;;;;;;;19.67;17.67;26.20;53.60;;;;;;111182;1241;49144;-63
2023/06/10 02:59:10;;;;;;;;;16.50;15.00;26.20;53.30;;;;;;111286;1238;49823;-66
2023/06/10 03:01:37;;;;;;;;;17.00;16.00;26.20;53.30;;;;;;111518;1243;53575;-63
2023/06/10 03:04:05;;;;;;;;;17.00;14.33;26.20;53.30;;;;;;111289;1238;44413;-63
2023/06/10 03:06:35;;;;;;;;;17.25;15.00;26.20;53.50;;;;;;111072;1243;49168;-63
2023/06/10 03:09:04;;;;;;;;;17.75;15.75;26.20;53.40;;;;;;111207;1243;49913;-62
2023/06/10 03:11:31;;;;;;;;;15.67;14.33;26.20;53.40;;;;;;111196;1243;53686;-63
2023/06/10 03:13:57;;;;;;;;;17.33;16.33;26.20;53.40;;;;;;111387;1237;45056;-65
2023/06/10 03:16:25;;;;;;;;;16.50;15.25;26.20;53.40;;;;;;111012;1243;49317;-62
2023/06/10 03:18:52;;;;;;;;;16.75;15.75;26.20;53.60;;;;;;111454;1242;49807;-62
2023/06/10 03:21:19;;;;;;;;;16.50;15.00;26.20;53.40;;;;;;111288;1243;54762;-66
2023/06/10 03:23:46;;;;;;;;;18.00;17.00;26.20;53.40;;;;;;111171;1238;44810;-63
2023/06/10 03:26:14;;;;;;;;;16.25;14.75;26.20;53.50;;;;;;111142;1238;49233;-66
2023/06/10 03:28:41;;;;;;;;;17.00;16.00;26.20;53.40;;;;;;111327;1238;49929;-64
2023/06/10 03:31:08;;;;;;;;;17.75;17.00;26.20;53.40;;;;;;111319;1243;54143;-65
2023/06/10 03:33:36;;;;;;;;;13.75;13.00;26.20;53.40;;;;;;111395;1237;44525;-65
2023/06/10 03:36:03;;;;;;;;;19.00;18.00;26.20;53.40;;;;;;111229;1239;49030;-63
2023/06/10 03:38:30;;;;;;;;;15.00;14.00;26.20;53.50;;;;;;111374;1242;50694;-64
2023/06/10 03:40:57;;;;;;;;;19.33;16.33;26.20;53.90;;;;;;111158;1243;53474;-63
2023/06/10 03:43:24;;;;;;;;;16.75;16.00;26.20;53.40;;;;;;111214;1243;44966;-63
2023/06/10 03:45:51;;;;;;;;;17.50;16.00;26.10;53.40;;;;;;111015;1238;49275;-63
2023/06/10 03:48:18;;;;;;;;;17.00;16.00;26.20;53.50;;;;;;111190;1241;49291;-63
2023/06/10 03:50:47;;;;;;;;;19.33;18.00;26.20;53.40;;;;;;111402;1243;53783;-62
2023/06/10 03:53:14;;;;;;;;;22.50;16.75;26.20;53.40;;;;;;111483;1241;45298;-64
2023/06/10 03:55:41;;;;;;;;;14.00;13.00;26.20;53.50;;;;;;111043;1240;49695;-63
2023/06/10 03:58:08;;;;;;;;;15.00;14.00;26.20;53.60;;;;;;111214;1241;49725;-61
2023/06/10 04:00:41;;;;;;;;;16.75;15.75;26.20;53.70;;;;;;111241;1239;54096;-63
2023/06/10 04:03:09;;;;;;;;;16.00;15.00;26.20;53.50;;;;;;111411;1242;44964;-62
2023/06/10 04:05:36;;;;;;;;;16.33;15.33;26.20;53.50;;;;;;111127;1238;49116;-65
2023/06/10 04:08:03;;;;;;;;;17.00;14.00;26.20;53.50;;;;;;111543;1237;50393;-63
2023/06/10 04:10:30;;;;;;;;;17.00;16.00;26.20;53.40;;;;;;111282;1243;53390;-64
2023/06/10 04:12:57;;;;;;;;;16.00;15.00;26.20;53.80;;;;;;111211;1238;45448;-63
2023/06/10 04:15:23;;;;;;;;;17.00;14.00;26.20;53.50;;;;;;111056;1239;50151;-64
2023/06/10 04:17:50;;;;;;;;;16.25;15.00;26.20;53.70;;;;;;111216;1243;49365;-64
2023/06/10 04:20:18;;;;;;;;;19.50;17.50;26.20;53.40;;;;;;111256;1238;54824;-65
2023/06/10 04:22:45;;;;;;;;;14.00;13.00;26.20;53.60;;;;;;111188;1240;45040;-65
2023/06/10 04:25:12;;;;;;;;;17.33;16.33;26.20;53.40;;;;;;111049;1243;49705;-67
2023/06/10 04:27:38;;;;;;;;;15.00;12.67;26.20;53.50;;;;;;111311;1241;50073;-65
2023/06/10 04:30:06;;;;;;;;;14.75;13.75;26.20;53.40;;;;;;111291;1238;53717;-65
2023/06/10 04:32:33;;;;;;;;;18.00;17.00;26.20;53.40;;;;;;111405;1238;44223;-63
2023/06/10 04:35:00;;;;;;;;;17.00;15.00;26.20;53.40;;;;;;111033;1238;49658;-63
2023/06/10 04:37:29;;;;;;;;;19.33;16.00;26.20;53.50;;;;;;111205;1241;50767;-64
2023/06/10 04:39:56;;;;;;;;;17.25;16.00;26.20;53.70;;;;;;111268;1243;53523;-64
2023/06/10 04:42:23;;;;;;;;;18.75;16.00;26.20;53.60;;;;;;111196;1241;44435;-64
2023/06/10 04:44:50;;;;;;;;;16.50;14.00;26.20;53.80;;;;;;111036;1243;50364;-62
2023/06/10 04:47:17;;;;;;;;;16.50;15.50;26.20;53.50;;;;;;111288;1239;49564;-63
2023/06/10 04:49:45;;;;;;;;;16.50;15.50;26.20;53.50;;;;;;111477;1241;53727;-60
2023/06/10 04:52:13;;;;;;;;;14.75;13.75;26.20;53.70;;;;;;111538;1241;44900;-60
2023/06/10 04:54:40;;;;;;;;;19.33;16.00;26.10;53.80;;;;;;111019;1238;50097;-60
2023/06/10 04:57:07;;;;;;;;;16.00;15.00;26.10;53.60;;;;;;111173;1243;49268;-59
2023/06/10 04:59:38;;;;;;;;;15.75;15.00;26.10;53.70;;;;;;111210;1239;54160;-60
2023/06/10 05:02:05;;;;;;;;;16.67;15.33;26.10;53.60;;;;;;111347;1243;44256;-60
2023/06/10 05:04:32;;;;;;;;;14.50;13.50;26.10;53.40;;;;;;111491;1241;49386;-64
2023/06/10 05:06:59;;;;;;;;;17.75;16.75;26.10;53.50;;;;;;111190;1238;49715;-62
2023/06/10 05:09:26;;;;;;;;;16.00;15.00;26.10;53.40;;;;;;111134;1244;53583;-62
2023/06/10 05:11:54;;;;;;;;;20.33;15.00;26.10;53.40;;;;;;112135;1244;44348;-61
2023/06/10 05:14:21;;;;;;;;;19.75;17.50;26.20;53.60;;;;;;111336;1240;49382;-60
2023/06/10 05:16:48;;;;;;;;;17.00;16.00;26.20;53.70;;;;;;111177;1243;49342;-61
2023/06/10 05:19:19;;;;;;;;;17.00;16.00;26.30;53.40;;;;;;111211;1240;53838;-60
2023/06/10 05:21:46;;;;;;;;;16.75;15.50;26.30;53.50;;;;;;111353;1238;45391;-61
2023/06/10 05:24:13;;;;;;;;;18.25;17.25;26.30;53.50;;;;;;111140;1238;49107;-61
2023/06/10 05:26:41;;;;;;;;;16.25;15.25;26.30;53.50;;;;;;111270;1243;50309;-62
2023/06/10 05:29:11;;;;;;;;;19.00;18.00;26.30;53.70;;;;;;111285;1238;54109;-62
2023/06/10 05:31:38;;;;;;;;;15.33;14.33;26.30;53.90;;;;;;111171;1238;45030;-62
2023/06/10 05:34:05;;;;;;;;;23.00;20.00;26.30;54.20;;;;;;111368;1241;49314;-63
2023/06/10 05:36:32;;;;;;;;;16.00;15.00;26.30;54.30;;;;;;111375;1243;49908;-62
2023/06/10 05:38:59;;;;;;;;;20.33;17.00;26.30;54.60;;;;;;111210;1238;54936;-61
2023/06/10 05:41:26;;;;;;;;;18.00;16.25;26.30;54.90;;;;;;111178;1240;44956;-63
2023/06/10 05:43:53;;;;;;;;;22.50;17.00;26.30;55.20;;;;;;111281;1241;49646;-62
2023/06/10 05:46:21;;;;;;;;;37.67;28.00;26.30;55.60;;;;;;111302;1238;49866;-61
2023/06/10 05:48:48;;;;;;;;;40.25;27.25;26.30;56.30;;;;;;111309;1238;54142;-61
2023/06/10 05:51:15;;;;;;;;;37.75;27.25;26.30;55.70;;;;;;111294;1243;44466;-64
2023/06/10 05:53:42;;;;;;;;;47.25;31.50;26.40;56.00;;;;;;111275;1243;50506;-62
2023/06/10 05:56:09;;;;;;;;;37.00;28.00;26.40;56.20;;;;;;111048;1241;49853;-62
2023/06/10 05:58:36;;;;;;;;;34.67;29.00;26.40;55.70;;;;;;111194;1241;54213;-64
2023/06/10 06:01:03;;;;;;;;;32.00;29.00;26.50;56.70;;;;;;111192;1238;44815;-64
2023/06/10 06:03:30;;;;;;;;;30.75;28.00;26.50;56.80;;;;;;111250;1238;49977;-65
2023/06/10 06:05:57;;;;;;;;;39.33;30.00;26.50;56.40;;;;;;111283;1243;48849;-64
2023/06/10 06:08:24;;;;;;;;;38.00;29.00;26.50;56.30;;;;;;111233;1240;53257;-65
2023/06/10 06:10:51;;;;;;;;;39.75;31.25;26.50;56.10;;;;;;111336;1241;44424;-65
2023/06/10 06:13:18;;;;;;;;;38.25;29.25;26.50;55.80;;;;;;111185;1238;50076;-64
2023/06/10 06:15:45;;;;;;;;;35.25;29.75;26.50;56.00;;;;;;111266;1242;49570;-66
2023/06/10 06:18:12;;;;;;;;;36.50;29.00;26.50;55.70;;;;;;111164;1243;54306;-65
2023/06/10 06:20:40;;;;;;;;;36.75;28.50;26.60;55.60;;;;;;111226;1244;44938;-64
2023/06/10 06:23:09;;;;;;;;;42.50;29.00;26.60;55.50;;;;;;111309;1243;50160;-64
2023/06/10 06:25:38;;;;;;;;;34.25;29.00;26.60;55.40;;;;;;111290;1243;49471;-64
2023/06/10 06:28:10;;;;;;;;;38.50;24.00;26.60;55.40;;;;;;111195;1240;53710;-64
2023/06/10 06:30:37;;;;;;;;;32.50;27.00;26.60;55.40;;;;;;111239;1240;44514;-64
2023/06/10 06:33:04;;;;;;;;;34.00;26.00;26.60;55.10;;;;;;111430;1244;49574;-65
2023/06/10 06:35:32;;;;;;;;;43.75;30.25;26.60;55.30;;;;;;111208;1241;49864;-64
2023/06/10 06:37:59;;;;;;;;;45.50;30.00;26.60;55.00;;;;;;111206;1244;53641;-65
2023/06/10 06:40:25;;;;;;;;;32.75;26.50;26.60;55.10;;;;;;111177;1244;44999;-64
2023/06/10 06:42:52;;;;;;;;;34.50;27.50;26.60;55.00;;;;;;111287;1242;49894;-66
2023/06/10 06:45:19;;;;;;;;;41.33;28.00;26.60;54.80;;;;;;111326;1244;50292;-65
2023/06/10 06:47:46;;;;;;;;;35.00;28.00;26.60;54.80;;;;;;111308;1238;53880;-65
2023/06/10 06:50:14;;;;;;;;;32.33;26.00;26.60;54.70;;;;;;111165;1244;44242;-66
2023/06/10 06:52:41;;;;;;;;;33.50;28.50;26.60;54.70;;;;;;111279;1244;50440;-65
2023/06/10 06:55:08;;;;;;;;;40.00;29.00;26.60;54.70;;;;;;111248;1244;49575;-64
2023/06/10 06:57:36;;;;;;;;;31.00;26.50;26.60;54.90;;;;;;111186;1240;54218;-65
2023/06/10 07:00:04;;;;;;;;;35.25;25.00;26.60;54.80;;;;;;111283;1244;44810;-65
2023/06/10 07:02:34;;;;;;;;;29.75;26.00;26.60;54.50;;;;;;111230;1238;49208;-65
2023/06/10 07:05:01;;;;;;;;;27.00;25.25;26.70;54.50;;;;;;111278;1238;49789;-65
2023/06/10 07:07:28;;;;;;;;;39.00;24.67;26.60;54.10;;;;;;111298;1244;54244;-65
2023/06/10 07:09:55;;;;;;;;;28.00;25.00;26.70;54.50;;;;;;111179;1244;46352;-65
2023/06/10 07:12:23;;;;;;;;;28.00;24.00;26.60;54.40;;;;;;111184;1244;49730;-65
2023/06/10 07:14:51;;;;;;;;;28.25;26.00;26.70;54.40;;;;;;111326;1243;49286;-65
2023/06/10 07:17:18;;;;;;;;;33.75;26.25;26.70;54.40;;;;;;111224;1238;53990;-64
2023/06/10 07:19:46;;;;;;;;;36.25;26.00;26.70;54.40;;;;;;111432;1242;44518;-65
2023/06/10 07:22:13;;;;;;;;;33.00;26.00;26.70;54.40;;;;;;111371;1244;49280;-65
2023/06/10 07:24:40;;;;;;;;;30.00;26.00;26.70;54.40;;;;;;111459;1241;49961;-65
2023/06/10 07:27:08;;;;;;;;;34.50;24.75;26.70;54.40;;;;;;111225;1238;54296;-65
2023/06/10 07:29:35;;;;;;;;;29.75;26.50;26.70;54.40;;;;;;111275;1240;44350;-64
2023/06/10 07:32:04;;;;;;;;;33.50;25.75;26.70;54.40;;;;;;111196;1239;49168;-64
2023/06/10 07:34:31;;;;;;;;;28.75;25.75;26.70;53.90;;;;;;111476;1239;49445;-65
2023/06/10 07:36:58;;;;;;;;;28.25;23.25;26.70;54.40;;;;;;111426;1241;54279;-65
2023/06/10 07:39:25;;;;;;;;;33.00;25.00;26.70;54.30;;;;;;111298;1243;44876;-64
2023/06/10 07:41:53;;;;;;;;;26.00;24.00;26.80;54.30;;;;;;111333;1238;50445;-65
2023/06/10 07:44:20;;;;;;;;;27.75;22.00;26.80;54.30;;;;;;111482;1238;49894;-65
2023/06/10 07:46:47;;;;;;;;;29.67;24.67;26.80;54.30;;;;;;111261;1243;53944;-65
2023/06/10 07:49:14;;;;;;;;;25.25;22.00;26.80;54.50;;;;;;111268;1243;44728;-64
2023/06/10 07:51:42;;;;;;;;;29.67;22.00;26.80;54.20;;;;;;111300;1243;50211;-65
2023/06/10 07:54:09;;;;;;;;;32.00;23.00;26.80;54.20;;;;;;111414;1241;49121;-64
2023/06/10 07:56:35;;;;;;;;;31.75;26.25;26.80;54.20;;;;;;111390;1238;54232;-64
2023/06/10 07:59:02;;;;;;;;;27.00;25.00;26.90;54.40;;;;;;111481;1238;45077;-64
2023/06/10 08:01:31;;;;;;;;;27.67;23.00;26.90;54.40;;;;;;111268;1243;49492;-65
2023/06/10 08:03:58;;;;;;;;;28.75;23.75;26.90;54.40;;;;;;111264;1240;50396;-64
2023/06/10 08:06:25;;;;;;;;;28.50;22.75;26.90;54.10;;;;;;111257;1244;53797;-64
2023/06/10 08:08:52;;;;;;;;;27.25;22.75;26.90;54.10;;;;;;111327;1240;45339;-64
2023/06/10 08:11:19;;;;;;;;;28.33;22.67;27.00;54.10;;;;;;111266;1238;49666;-65
2023/06/10 08:13:45;;;;;;;;;29.25;21.25;27.00;54.10;;;;;;111219;1244;48973;-64
2023/06/10 08:16:12;;;;;;;;;25.25;21.00;27.00;54.10;;;;;;111272;1243;53838;-65
2023/06/10 08:18:39;;;;;;;;;28.75;22.50;27.00;54.20;;;;;;111219;1240;45698;-67
2023/06/10 08:21:06;;;;;;;;;25.00;22.00;27.00;54.00;;;;;;111225;1239;49035;-65
2023/06/10 08:23:33;;;;;;;;;33.25;26.50;27.10;54.00;;;;;;111359;1240;49230;-64
2023/06/10 08:26:00;;;;;;;;;34.00;23.67;27.10;54.00;;;;;;111308;1240;53514;-64
2023/06/10 08:28:27;;;;;;;;;30.50;23.50;27.10;53.90;;;;;;111188;1239;45704;-65
2023/06/10 08:30:54;;;;;;;;;29.50;24.00;27.20;53.90;;;;;;111218;1240;49606;-65
2023/06/10 08:33:21;;;;;;;;;24.67;23.67;27.20;53.90;;;;;;111224;1244;49784;-64
2023/06/10 08:35:48;;;;;;;;;28.00;22.00;27.20;53.90;;;;;;111284;1244;54093;-64
2023/06/10 08:38:16;;;;;;;;;25.75;22.00;27.20;53.90;;;;;;111218;1238;45851;-63
2023/06/10 08:40:43;;;;;;;;;26.00;22.50;27.30;53.80;;;;;;111334;1244;49329;-64
2023/06/10 08:43:34;;;;;;;;;23.00;20.25;27.30;53.80;;;;;;111213;1244;49362;-64
2023/06/10 08:46:02;;;;;;;;;25.25;20.00;27.30;53.80;;;;;;110941;1244;54046;-65
2023/06/10 08:48:34;;;;;;;;;24.75;21.50;27.40;53.80;;;;;;111124;1238;45270;-63
2023/06/10 08:51:04;;;;;;;;;23.25;18.00;27.40;53.80;;;;;;111186;1240;49355;-63
2023/06/10 08:53:33;;;;;;;;;29.00;22.00;27.50;53.80;;;;;;111292;1244;49861;-64
2023/06/10 08:56:03;;;;;;;;;21.25;19.75;27.50;53.60;;;;;;111265;1244;53595;-63
2023/06/10 08:58:33;;;;;;;;;29.67;22.67;27.50;53.60;;;;;;110921;1244;44356;-65
2023/06/10 09:01:00;;;;;;;;;24.50;21.00;27.60;53.80;;;;;;111190;1241;49750;-65
2023/06/10 09:03:28;;;;;;;;;21.50;20.50;27.60;53.50;;;;;;111313;1240;52136;-64
2023/06/10 09:05:56;;;;;;;;;24.00;21.50;27.60;53.50;;;;;;111359;1244;54131;-66
2023/06/10 09:08:23;;;;;;;;;20.33;18.33;27.60;53.40;;;;;;111393;1239;44061;-66
2023/06/10 09:10:50;;;;;;;;;22.50;19.25;27.70;53.60;;;;;;111187;1243;49651;-65
2023/06/10 09:13:18;;;;;;;;;24.75;16.50;27.70;53.40;;;;;;111294;1241;49365;-64
2023/06/10 09:15:45;;;;;;;;;22.00;20.00;27.70;53.30;;;;;;111488;1238;53308;-65
2023/06/10 09:18:12;;;;;;;;;26.00;21.00;27.70;53.50;;;;;;111197;1244;44484;-66
2023/06/10 09:20:42;;;;;;;;;25.25;20.75;27.80;53.30;;;;;;111204;1243;49353;-72
2023/06/10 09:23:09;;;;;;;;;27.25;20.75;27.80;53.30;;;;;;111229;1238;49756;-66
2023/06/10 09:25:38;;;;;;;;;24.25;19.50;27.80;53.40;;;;;;111382;1241;53505;-65
2023/06/10 09:28:05;;;;;;;;;18.00;17.00;27.90;53.30;;;;;;111274;1238;44734;-66
2023/06/10 09:30:33;;;;;;;;;20.50;19.00;27.90;53.40;;;;;;111181;1243;49001;-65
2023/06/10 09:33:02;;;;;;;;;27.00;22.25;27.90;53.10;;;;;;111428;1241;49459;-69
2023/06/10 09:35:30;;;;;;;;;23.00;19.00;27.90;53.30;;;;;;111240;1243;53788;-72
2023/06/10 09:37:59;;;;;;;;;19.25;17.75;27.90;53.10;;;;;;111224;1243;45370;-65
2023/06/10 09:40:27;;;;;;;;;23.50;19.00;28.00;53.00;;;;;;111474;1238;50163;-66
2023/06/10 09:42:56;;;;;;;;;25.25;18.00;28.00;53.00;;;;;;111197;1238;49498;-68
2023/06/10 09:45:29;;;;;;;;;19.00;17.67;28.00;52.90;;;;;;111277;1238;53189;-65
2023/06/10 09:47:56;;;;;;;;;22.00;19.67;28.00;52.50;;;;;;111425;1241;44690;-65
2023/06/10 09:50:23;;;;;;;;;23.25;19.50;28.10;53.10;;;;;;111190;1243;48924;-64
2023/06/10 09:52:51;;;;;;;;;25.25;21.25;28.10;52.80;;;;;;111186;1241;50439;-65
2023/06/10 09:55:19;;;;;;;;;22.50;19.00;28.10;52.80;;;;;;111258;1238;53631;-64
2023/06/10 09:57:49;;;;;;;;;24.50;19.00;28.10;53.00;;;;;;111296;1238;44906;-64
2023/06/10 10:00:17;;;;;;;;;24.50;19.25;28.10;52.30;;;;;;111471;1238;48787;-64
2023/06/10 10:02:52;;;;;;;;;22.25;18.25;28.10;52.90;;;;;;111364;1243;50625;-65
2023/06/10 10:05:23;;;;;;;;;19.67;15.00;28.20;52.80;;;;;;111385;1241;54001;-63
2023/06/10 10:07:52;;;;;;;;;21.25;17.00;28.20;52.80;;;;;;111195;1243;44217;-64
2023/06/10 10:10:20;;;;;;;;;19.75;17.25;28.20;52.70;;;;;;111424;1241;49642;-64
2023/06/10 10:12:48;;;;;;;;;23.50;17.00;28.20;52.70;;;;;;111171;1243;49746;-64
2023/06/10 10:15:17;;;;;;;;;22.00;16.67;28.20;52.80;;;;;;111260;1238;54288;-63
2023/06/10 10:17:56;;;;;;;;;23.00;19.00;28.20;52.80;;;;;;111327;1238;44626;-65
2023/06/10 10:20:29;;;;;;;;;20.75;17.75;28.30;52.80;;;;;;111243;1243;49355;-63
2023/06/10 10:23:03;;;;;;;;;19.00;17.00;28.30;52.70;;;;;;111481;1243;49345;-64
2023/06/10 10:25:35;;;;;;;;;23.33;19.00;28.30;52.60;;;;;;111432;1238;54292;-64
2023/06/10 10:28:06;;;;;;;;;17.75;17.00;28.30;52.80;;;;;;111248;1238;44293;-64
2023/06/10 10:30:39;;;;;;;;;22.33;19.67;28.30;52.50;;;;;;111501;1238;49153;-64
2023/06/10 10:33:09;;;;;;;;;18.50;17.25;28.30;52.50;;;;;;111421;1241;49804;-64
2023/06/10 10:35:38;;;;;;;;;21.33;17.67;28.30;52.40;;;;;;111265;1243;53694;-65
2023/06/10 10:38:06;;;;;;;;;23.75;16.75;28.40;52.50;;;;;;111341;1238;44756;-66
2023/06/10 10:40:33;;;;;;;;;20.50;16.75;28.40;52.40;;;;;;111268;1244;49156;-63
2023/06/10 10:43:01;;;;;;;;;20.67;19.00;28.40;52.80;;;;;;111221;1244;49011;-63
2023/06/10 10:45:29;;;;;;;;;16.00;15.00;28.40;52.30;;;;;;111364;1243;53677;-64
2023/06/10 10:47:57;;;;;;;;;20.00;17.25;28.40;52.60;;;;;;111246;1244;45023;-65
2023/06/10 10:50:30;;;;;;;;;18.00;17.00;28.40;52.60;;;;;;111302;1243;49507;-65
2023/06/10 10:53:05;;;;;;;;;18.00;17.00;28.40;52.40;;;;;;111198;1240;49606;-64
2023/06/10 10:55:32;;;;;;;;;19.00;18.00;28.40;52.30;;;;;;111265;1243;54027;-64
2023/06/10 10:57:59;;;;;;;;;19.33;18.00;28.40;52.50;;;;;;111381;1243;44960;-64
2023/06/10 11:00:30;;;;;;;;;16.75;15.75;28.40;52.30;;;;;;111232;1239;48991;-64
2023/06/10 11:03:07;;;;;;;;;16.75;14.50;28.40;52.20;;;;;;111222;1238;49825;-64
2023/06/10 11:05:47;;;;;;;;;18.75;18.00;28.40;52.50;;;;;;111306;1240;53984;-64
2023/06/10 11:08:34;;;;;;;;;20.33;18.00;28.40;52.30;;;;;;111364;1243;44539;-63
2023/06/10 11:11:21;;;;;;;;;16.75;16.00;28.40;52.20;;;;;;111326;1241;50144;-64
2023/06/10 11:14:01;;;;;;;;;17.00;15.75;28.40;52.10;;;;;;111233;1244;49118;-65
2023/06/10 11:16:29;;;;;;;;;20.50;16.75;28.40;52.10;;;;;;111462;1241;54083;-63
2023/06/10 11:18:56;;;;;;;;;21.00;17.00;28.40;52.00;;;;;;111301;1241;44571;-64
2023/06/10 11:21:27;;;;;;;;;20.00;16.25;28.40;52.00;;;;;;111409;1241;50357;-64
2023/06/10 11:23:58;;;;;;;;;18.33;16.33;28.40;52.00;;;;;;111234;1243;49221;-64
2023/06/10 11:26:34;;;;;;;;;21.25;16.75;28.40;52.20;;;;;;111281;1239;54131;-64
2023/06/10 11:29:08;;;;;;;;;21.00;17.25;28.40;52.10;;;;;;111229;1239;44255;-63
2023/06/10 11:31:47;;;;;;;;;15.50;14.00;28.40;52.30;;;;;;111302;1244;49824;-64
2023/06/10 11:34:23;;;;;;;;;21.25;18.00;28.40;52.10;;;;;;111303;1243;50191;-64
2023/06/10 11:36:51;;;;;;;;;18.00;16.25;28.40;52.10;;;;;;111205;1243;54020;-64
2023/06/10 11:39:21;;;;;;;;;17.75;15.00;28.40;52.10;;;;;;111243;1240;44740;-64
2023/06/10 11:41:48;;;;;;;;;17.50;16.00;28.40;52.10;;;;;;111277;1243;50441;-64
2023/06/10 11:44:15;;;;;;;;;21.25;16.25;28.40;52.10;;;;;;111392;1241;49696;-64
2023/06/10 11:46:42;;;;;;;;;19.25;16.25;28.30;52.00;;;;;;111372;1240;54448;-64
2023/06/10 11:49:09;;;;;;;;;22.67;17.00;28.30;52.10;;;;;;111270;1243;44253;-65
2023/06/10 11:51:39;;;;;;;;;16.67;16.00;28.30;52.00;;;;;;111216;1238;50303;-64
2023/06/10 11:54:08;;;;;;;;;20.00;15.67;28.30;52.00;;;;;;111354;1243;49771;-64
2023/06/10 11:56:36;;;;;;;;;18.50;15.75;28.30;52.00;;;;;;111211;1243;53371;-64
2023/06/10 11:59:07;;;;;;;;;18.25;16.25;28.30;52.20;;;;;;111194;1243;44597;-64
2023/06/10 12:01:40;;;;;;;;;19.75;18.75;28.30;52.00;;;;;;111462;1241;49174;-63
2023/06/10 12:04:08;;;;;;;;;18.75;15.50;28.30;52.00;;;;;;111403;1237;48909;-64
2023/06/10 12:06:43;;;;;;;;;24.33;19.00;28.20;52.00;;;;;;111454;1241;55008;-64
2023/06/10 12:09:30;;;;;;;;;19.25;13.50;28.20;51.90;;;;;;111263;1238;44933;-64
2023/06/10 12:11:59;;;;;;;;;23.33;18.67;28.20;51.90;;;;;;111248;1238;49668;-65
2023/06/10 12:14:54;;;;;;;;;16.50;13.75;28.20;51.90;;;;;;111439;1241;49969;-65
2023/06/10 12:17:22;;;;;;;;;19.75;16.00;28.20;52.40;;;;;;111205;1238;53709;-65
2023/06/10 12:19:51;;;;;;;;;18.50;15.75;28.20;51.90;;;;;;111257;1243;45079;-64
2023/06/10 12:22:19;;;;;;;;;18.67;16.33;28.20;51.50;;;;;;111256;1238;49528;-65
2023/06/10 12:25:04;;;;;;;;;21.50;18.25;28.20;51.90;;;;;;111342;1243;50438;-65
2023/06/10 12:27:33;;;;;;;;;16.75;15.00;28.20;52.00;;;;;;111356;1238;54642;-65
2023/06/10 12:30:04;;;;;;;;;17.00;16.00;28.20;51.90;;;;;;111358;1238;45145;-65
2023/06/10 12:32:46;;;;;;;;;16.75;15.75;28.20;51.90;;;;;;111274;1243;49150;-64